Impacts TAF Board
For situational awareness. Not to be used for flight planning purposes.
IDs:

KBOS - Boston/Logan Intl, MA, US

Issued at 0531 UTC 24 Mar 2019
Updated at 0638 UTC 24 Mar 2019
Potential Impact None Slight Moderate High
Time0554Z 24/07Z 24/08Z 24/09Z 24/10Z 24/11Z 24/12Z 24/13Z 24/14Z 24/15Z 24/16Z 24/17Z 24/18Z 24/19Z>>
Type OBS PRVL PRVL PRVL PRVL PRVL PRVL PRVL PRVL PRVL PRVL PRVL PRVL PRVL
VIS 10 >6 >6 >6 >6 >6 >6 >6 >6 >6 >6 >6 >6 >6
CIG -- -- -- -- -- -- -- -- -- -- -- -- -- --
Cover FEW SKC SKC SKC SKC SKC SKC SKC SKC SKC SKC SKC SKC SKC
FltCat VFR VFR VFR VFR VFR VFR VFR VFR VFR VFR VFR VFR VFR VFR
WX -- -- -- -- -- -- -- -- -- -- -- -- -- --
WDir 280 280 280 250 250 250 250 250 250 250 250 250 250 250
WSpd 12 12 12 11 11 11 11 11 12 12 12 12 12 12
WGst 19 19 19 -- -- -- -- -- 20 20 20 20 20 20
Raw TAF
KBOS 240531Z 2406/2512 28012G19KT P6SM SKC
  FM240900 25011KT P6SM SKC
  FM241400 25012G20KT P6SM SKC
  FM242200 24011KT P6SM BKN150
  FM250800 30006KT P6SM BKN030


Raw METAR
KBOS 240554Z 28012G19KT 10SM FEW250 02/M11 A3000 RMK AO2 SLP159 T00171106 10061 20017 51023
KBOS 240454Z 27012KT 10SM FEW250 02/M11 A2998 RMK AO2 SLP152 T00221106 400890011
KBOS 240354Z 28017G27KT 10SM FEW250 03/M10 A2996 RMK AO2 PK WND 28027/0339 SLP144 T00281100

METAR Board
Radar Display
Forecast Discussion
For situational awareness. Not to be used for flight planning purposes.